Time;durP1;ratioP1;P1;durP2;ratioP2;P2;SDS_P1;SDS_P2;PMS_P1;PMS_P2;Temp;Humidity;BMP_temperature;BMP_pressure;BME280_temperature;BME280_humidity;BME280_pressure;Samples;Min_cycle;Max_cycle;Signal;HPM_P1;HPM_P2
2022/06/18 00:01:35;;;;;;;5.78;3.53;;;18.90;99.90;;;;;;4948372;29;20500;-54
2022/06/18 00:04:08;;;;;;;5.80;4.20;;;18.90;99.90;;;;;;4948743;28;20043;-57
2022/06/18 00:06:49;;;;;;;4.63;4.22;;;18.80;99.90;;;;;;4947739;29;20026;-56
2022/06/18 00:09:15;;;;;;;7.68;4.07;;;18.80;99.90;;;;;;4947907;29;20435;-57
2022/06/18 00:14:25;;;;;;;8.10;3.80;;;18.70;99.90;;;;;;4952248;29;20051;-54
2022/06/18 00:16:50;;;;;;;6.43;4.32;;;18.70;99.90;;;;;;4937964;29;20027;-57
2022/06/18 00:19:16;;;;;;;6.38;4.05;;;18.70;99.90;;;;;;4937847;29;20074;-54
2022/06/18 00:21:42;;;;;;;5.13;4.30;;;18.70;99.90;;;;;;4937623;29;20028;-58
2022/06/18 00:24:17;;;;;;;8.25;4.20;;;18.70;99.90;;;;;;4937567;29;20031;-55
2022/06/18 00:26:42;;;;;;;6.30;4.35;;;18.70;99.90;;;;;;4937732;29;20023;-57
2022/06/18 00:29:14;;;;;;;4.97;4.18;;;18.70;99.90;;;;;;4937831;29;20075;-56
2022/06/18 00:31:40;;;;;;;4.85;3.67;;;18.70;99.90;;;;;;4938163;29;20039;-57
2022/06/18 00:34:06;;;;;;;5.95;3.67;;;18.60;99.90;;;;;;4939278;29;20060;-59
2022/06/18 00:36:33;;;;;;;6.55;3.80;;;18.60;99.90;;;;;;4939587;29;20036;-56
2022/06/18 00:39:00;;;;;;;6.07;3.83;;;18.60;99.90;;;;;;4939544;29;20424;-57
2022/06/18 00:41:26;;;;;;;5.15;3.53;;;18.50;99.90;;;;;;4939125;29;20032;-57
2022/06/18 00:44:06;;;;;;;5.40;3.55;;;18.50;99.90;;;;;;4939197;29;20087;-58
2022/06/18 00:46:49;;;;;;;4.20;3.80;;;18.50;99.90;;;;;;4939973;29;20075;-56
2022/06/18 00:49:23;;;;;;;8.20;4.35;;;18.50;99.90;;;;;;4939537;29;20028;-57
2022/06/18 00:52:02;;;;;;;4.82;4.07;;;18.50;99.90;;;;;;4939119;29;20043;-54
2022/06/18 00:54:39;;;;;;;4.45;3.78;;;18.50;99.90;;;;;;4939256;29;20032;-57
2022/06/18 00:57:20;;;;;;;5.47;3.88;;;18.40;99.90;;;;;;4939250;29;20058;-55
2022/06/18 00:59:59;;;;;;;6.72;3.45;;;18.40;99.90;;;;;;4939344;29;20485;-57
2022/06/18 01:02:32;;;;;;;7.57;3.95;;;18.40;99.90;;;;;;4939056;29;20083;-56
2022/06/18 01:04:58;;;;;;;5.80;3.70;;;18.40;99.90;;;;;;4938670;29;20039;-57
2022/06/18 01:07:32;;;;;;;5.30;3.53;;;18.40;99.90;;;;;;4938821;29;20385;-55
2022/06/18 01:09:59;;;;;;;5.65;4.15;;;18.40;99.90;;;;;;4939219;29;20028;-57
2022/06/18 01:12:25;;;;;;;4.65;3.90;;;18.30;99.90;;;;;;4938668;29;20034;-58
2022/06/18 01:15:04;;;;;;;3.80;3.50;;;18.30;99.90;;;;;;4938625;29;20028;-55
2022/06/18 01:17:31;;;;;;;4.50;3.78;;;18.30;99.90;;;;;;4938992;29;20362;-57
2022/06/18 01:19:59;;;;;;;3.90;3.50;;;18.30;99.90;;;;;;4938809;29;20115;-56
2022/06/18 01:22:52;;;;;;;4.90;3.85;;;18.20;99.90;;;;;;4939051;29;20103;-57
2022/06/18 01:25:18;;;;;;;5.07;3.80;;;18.20;99.90;;;;;;4938813;29;20031;-56
2022/06/18 01:27:44;;;;;;;8.57;3.53;;;18.20;99.90;;;;;;4940795;29;20492;-56
2022/06/18 01:30:16;;;;;;;5.40;3.55;;;18.20;99.90;;;;;;4939272;29;20136;-57
2022/06/18 01:32:43;;;;;;;5.00;3.65;;;18.20;99.90;;;;;;4937793;29;20028;-57
2022/06/18 01:35:10;;;;;;;5.00;3.65;;;18.20;99.90;;;;;;4938925;29;20051;-58
2022/06/18 01:37:36;;;;;;;4.05;3.55;;;18.10;99.90;;;;;;4938605;29;20039;-57
2022/06/18 01:40:04;;;;;;;4.10;3.67;;;18.10;99.90;;;;;;4938287;29;20485;-57
2022/06/18 01:42:39;;;;;;;5.93;3.53;;;18.10;99.90;;;;;;4938078;29;20027;-58
2022/06/18 01:45:27;;;;;;;3.83;3.50;;;18.10;99.90;;;;;;4938431;29;20080;-58
2022/06/18 01:47:59;;;;;;;7.13;3.97;;;18.10;99.90;;;;;;4938388;29;20034;-57
2022/06/18 01:50:43;;;;;;;5.63;3.90;;;18.10;99.90;;;;;;4938299;29;20036;-57
2022/06/18 01:53:17;;;;;;;5.25;4.05;;;18.10;99.90;;;;;;4938074;29;20086;-58
2022/06/18 01:55:50;;;;;;;8.05;4.72;;;18.10;99.90;;;;;;4938076;29;20028;-57
2022/06/18 01:58:21;;;;;;;5.97;4.10;;;18.10;99.90;;;;;;4937873;29;20031;-56
2022/06/18 02:00:52;;;;;;;4.82;3.80;;;18.10;99.90;;;;;;4938320;29;20079;-56
2022/06/18 02:03:18;;;;;;;7.28;3.80;;;18.00;99.90;;;;;;4937894;29;20038;-57
2022/06/18 02:05:44;;;;;;;5.88;4.45;;;18.00;99.90;;;;;;4936376;29;20032;-57
2022/06/18 02:08:12;;;;;;;8.88;5.00;;;18.00;99.90;;;;;;4938104;29;20405;-56
2022/06/18 02:10:47;;;;;;;5.07;4.38;;;18.00;99.90;;;;;;4937514;29;20036;-54
2022/06/18 02:13:13;;;;;;;5.85;4.20;;;18.00;99.90;;;;;;4937586;29;20054;-58
2022/06/18 02:15:42;;;;;;;6.35;4.32;;;18.00;99.90;;;;;;4936155;29;20078;-58
2022/06/18 02:18:11;;;;;;;6.70;3.95;;;18.00;99.90;;;;;;4937433;29;20030;-57
2022/06/18 02:20:46;;;;;;;7.38;4.65;;;17.90;99.90;;;;;;4937698;29;20119;-57
2022/06/18 02:23:12;;;;;;;6.53;4.55;;;18.00;99.90;;;;;;4937187;29;20019;-56
2022/06/18 02:25:38;;;;;;;6.32;4.38;;;17.90;99.90;;;;;;4937254;29;20087;-56
2022/06/18 02:28:30;;;;;;;9.63;4.57;;;17.90;99.90;;;;;;4937384;29;20103;-57
2022/06/18 02:30:59;;;;;;;6.90;4.97;;;17.80;99.90;;;;;;4937479;29;20031;-58
2022/06/18 02:33:39;;;;;;;6.85;4.70;;;17.80;99.90;;;;;;4937157;29;20027;-55
2022/06/18 02:36:29;;;;;;;6.32;4.55;;;17.80;99.90;;;;;;4936825;29;20031;-55
2022/06/18 02:39:04;;;;;;;8.13;4.97;;;17.80;99.90;;;;;;4937281;29;20032;-54
2022/06/18 02:41:30;;;;;;;6.65;4.45;;;17.90;99.90;;;;;;4937211;29;20031;-52
2022/06/18 02:43:57;;;;;;;8.25;4.15;;;17.90;99.90;;;;;;4937777;29;20032;-53
2022/06/18 02:46:23;;;;;;;6.68;4.22;;;17.80;99.90;;;;;;4937188;29;20389;-56
2022/06/18 02:48:49;;;;;;;4.43;4.03;;;17.80;99.90;;;;;;4937202;29;20023;-56
2022/06/18 02:51:15;;;;;;;6.40;4.00;;;17.80;99.90;;;;;;4935495;29;20554;-57
2022/06/18 02:53:41;;;;;;;7.30;4.63;;;17.80;99.90;;;;;;4936864;29;20028;-55
2022/06/18 02:56:07;;;;;;;4.97;4.13;;;17.80;99.90;;;;;;4937080;29;20155;-57
2022/06/18 02:58:43;;;;;;;5.70;3.90;;;17.80;99.90;;;;;;4936604;29;20028;-54
2022/06/18 03:01:13;;;;;;;4.95;4.10;;;17.80;99.90;;;;;;4935461;29;20031;-56
2022/06/18 03:03:42;;;;;;;5.05;3.58;;;17.80;99.90;;;;;;4936866;29;20040;-56
2022/06/18 03:06:08;;;;;;;8.98;3.50;;;17.80;99.90;;;;;;4936876;29;20182;-55
2022/06/18 03:08:35;;;;;;;7.00;4.03;;;17.80;99.90;;;;;;4937128;29;20493;-57
2022/06/18 03:13:46;;;;;;;7.55;3.90;;;17.80;99.90;;;;;;4936477;29;20030;-56
2022/06/18 03:16:15;;;;;;;7.20;4.10;;;17.80;99.90;;;;;;4936469;29;20473;-57
2022/06/18 03:18:43;;;;;;;5.93;3.72;;;17.80;99.90;;;;;;4936849;29;20050;-57
2022/06/18 03:21:15;;;;;;;4.55;3.58;;;17.90;99.90;;;;;;4936342;29;20073;-55
2022/06/18 03:23:42;;;;;;;4.95;3.55;;;17.90;99.90;;;;;;4936452;29;20421;-57
2022/06/18 03:26:08;;;;;;;5.90;4.35;;;17.90;99.90;;;;;;4936364;29;20058;-57
2022/06/18 03:28:33;;;;;;;4.88;3.90;;;17.90;99.90;;;;;;4936923;29;20024;-58
2022/06/18 03:30:59;;;;;;;8.15;4.30;;;17.90;99.90;;;;;;4936436;29;20489;-56
2022/06/18 03:33:25;;;;;;;6.93;4.40;;;18.00;99.90;;;;;;4934960;29;20032;-55
2022/06/18 03:35:52;;;;;;;7.28;4.40;;;18.00;99.90;;;;;;4935292;29;20031;-57
2022/06/18 03:38:19;;;;;;;6.35;3.92;;;18.00;99.90;;;;;;4936469;29;20036;-57
2022/06/18 03:40:51;;;;;;;6.85;3.83;;;18.00;99.90;;;;;;4936040;29;20075;-56
2022/06/18 03:43:21;;;;;;;7.32;3.85;;;18.10;99.90;;;;;;4936284;29;20038;-56
2022/06/18 03:45:50;;;;;;;4.80;3.80;;;18.10;99.90;;;;;;4935972;29;20024;-56
2022/06/18 03:48:23;;;;;;;6.10;3.90;;;18.10;99.90;;;;;;4936123;29;20454;-56
2022/06/18 03:50:49;;;;;;;5.97;4.15;;;18.10;99.90;;;;;;4935338;29;20114;-55
2022/06/18 03:53:15;;;;;;;5.55;3.72;;;18.10;99.90;;;;;;4936234;29;20139;-56
2022/06/18 03:55:42;;;;;;;6.50;3.95;;;18.10;99.90;;;;;;4936225;29;20032;-54
2022/06/18 03:58:08;;;;;;;4.78;3.80;;;18.10;99.90;;;;;;4936072;29;20031;-56
2022/06/18 04:00:34;;;;;;;4.53;3.60;;;18.10;99.90;;;;;;4936889;29;20038;-57
2022/06/18 04:03:00;;;;;;;4.45;4.00;;;18.20;99.90;;;;;;4936312;29;20032;-57
2022/06/18 04:05:25;;;;;;;5.25;3.67;;;18.20;99.90;;;;;;4936201;29;20103;-56
2022/06/18 04:07:51;;;;;;;4.05;3.65;;;18.20;99.90;;;;;;4936000;29;20474;-54
2022/06/18 04:10:19;;;;;;;9.55;4.30;;;18.20;99.90;;;;;;4935905;29;20043;-56
2022/06/18 04:12:46;;;;;;;6.75;3.65;;;18.30;99.90;;;;;;4935975;29;20127;-57
2022/06/18 04:15:13;;;;;;;4.30;3.25;;;18.30;99.90;;;;;;4936109;29;20027;-57
2022/06/18 04:17:39;;;;;;;5.88;3.83;;;18.30;99.90;;;;;;4935851;29;20035;-56
2022/06/18 04:20:06;;;;;;;5.38;4.25;;;18.30;99.90;;;;;;4935943;29;20042;-58
2022/06/18 04:22:32;;;;;;;5.53;4.35;;;18.40;99.90;;;;;;4935606;29;20091;-58
2022/06/18 04:24:58;;;;;;;5.20;3.80;;;18.40;99.90;;;;;;4935960;29;20024;-56
2022/06/18 04:27:23;;;;;;;3.88;3.47;;;18.50;99.90;;;;;;4936254;29;20115;-56
2022/06/18 04:29:49;;;;;;;6.28;3.95;;;18.50;99.90;;;;;;4935996;29;20046;-57
2022/06/18 04:32:14;;;;;;;8.32;3.53;;;18.60;99.90;;;;;;4935922;29;20066;-57
2022/06/18 04:34:40;;;;;;;5.10;3.83;;;18.60;99.90;;;;;;4936073;29;20031;-57
2022/06/18 04:37:06;;;;;;;3.80;3.28;;;18.60;99.90;;;;;;4936096;29;20091;-57
2022/06/18 04:39:32;;;;;;;4.90;3.50;;;18.60;99.90;;;;;;4936126;29;20091;-55
2022/06/18 04:41:58;;;;;;;7.55;4.10;;;18.70;99.90;;;;;;4936245;29;20469;-56
2022/06/18 04:44:24;;;;;;;4.53;3.92;;;18.80;99.90;;;;;;4936167;29;20023;-56
2022/06/18 04:46:50;;;;;;;6.85;4.13;;;18.80;99.90;;;;;;4938252;29;20027;-56
2022/06/18 04:49:15;;;;;;;4.15;3.45;;;18.80;99.90;;;;;;4939387;29;20035;-55
2022/06/18 04:51:41;;;;;;;4.70;3.72;;;18.90;99.90;;;;;;4939049;29;20115;-53
2022/06/18 04:54:07;;;;;;;6.78;4.05;;;19.00;99.90;;;;;;4939034;29;20039;-57
2022/06/18 04:56:32;;;;;;;6.93;3.42;;;19.00;99.90;;;;;;4939011;29;20510;-56
2022/06/18 04:58:58;;;;;;;7.82;4.97;;;19.10;99.90;;;;;;4938944;29;20036;-55
2022/06/18 05:01:29;;;;;;;6.30;4.22;;;19.20;99.90;;;;;;4939179;29;20031;-57
2022/06/18 05:03:54;;;;;;;7.50;4.03;;;19.20;99.90;;;;;;4949116;23;20035;-57
2022/06/18 05:06:20;;;;;;;7.32;4.15;;;19.30;99.90;;;;;;4977653;28;20412;-57
2022/06/18 05:08:45;;;;;;;7.63;4.70;;;19.40;99.90;;;;;;4978585;28;20027;-55
2022/06/18 05:11:11;;;;;;;9.30;5.32;;;19.60;99.90;;;;;;4978281;28;20035;-57
2022/06/18 05:13:37;;;;;;;8.18;4.85;;;19.60;99.90;;;;;;4978221;28;20022;-57
2022/06/18 05:16:04;;;;;;;6.70;4.60;;;19.80;99.90;;;;;;4978359;28;20027;-58
2022/06/18 05:18:32;;;;;;;7.50;4.53;;;19.90;99.90;;;;;;4960703;28;20034;-58
2022/06/18 05:20:58;;;;;;;6.78;4.65;;;20.00;99.90;;;;;;4977757;28;20034;-58
2022/06/18 05:23:24;;;;;;;10.88;5.47;;;20.10;99.90;;;;;;4977517;28;20026;-56
2022/06/18 05:25:58;;;;;;;9.18;4.75;;;20.20;99.90;;;;;;4977570;28;20034;-57
2022/06/18 05:28:25;;;;;;;7.45;4.57;;;20.30;99.90;;;;;;4977411;28;20388;-58
2022/06/18 05:30:50;;;;;;;11.27;5.30;;;20.40;99.90;;;;;;4977557;28;20069;-58
2022/06/18 05:33:16;;;;;;;6.20;5.35;;;20.50;99.90;;;;;;4977011;28;20033;-56
2022/06/18 05:35:43;;;;;;;5.72;4.53;;;20.50;99.90;;;;;;4977331;28;20050;-58
2022/06/18 05:38:18;;;;;;;9.85;6.00;;;20.60;99.90;;;;;;4977155;28;20134;-57
2022/06/18 05:40:43;;;;;;;8.60;5.53;;;20.70;99.90;;;;;;4977083;28;20427;-57
2022/06/18 05:43:09;;;;;;;6.72;5.03;;;20.80;99.90;;;;;;4977865;28;20091;-58
2022/06/18 05:45:35;;;;;;;8.63;5.60;;;20.80;99.90;;;;;;4977697;28;20053;-57
2022/06/18 05:48:00;;;;;;;6.70;5.05;;;20.90;99.90;;;;;;4977237;28;20026;-55
2022/06/18 05:50:26;;;;;;;6.47;5.72;;;21.00;99.90;;;;;;4977034;28;20396;-56
2022/06/18 05:52:52;;;;;;;14.05;6.22;;;21.10;99.90;;;;;;4977415;28;20033;-58
2022/06/18 05:55:20;;;;;;;11.10;6.95;;;21.20;99.90;;;;;;4977692;28;20101;-58
2022/06/18 05:57:53;;;;;;;8.55;5.82;;;21.40;99.90;;;;;;4976010;28;20110;-57
2022/06/18 06:00:22;;;;;;;9.85;6.57;;;21.50;99.90;;;;;;4976898;28;20031;-57
2022/06/18 06:02:47;;;;;;;15.70;7.75;;;21.50;99.90;;;;;;4976840;28;20080;-57
2022/06/18 06:05:14;;;;;;;9.23;6.70;;;21.70;99.90;;;;;;4977048;28;20028;-55
2022/06/18 06:07:40;;;;;;;9.00;7.05;;;21.80;99.90;;;;;;4977049;28;20037;-57
2022/06/18 06:13:11;;;;;;;10.43;6.35;;;22.00;99.90;;;;;;4977880;28;20078;-58
2022/06/18 06:15:38;;;;;;;9.52;6.97;;;22.10;99.90;;;;;;4977732;28;20029;-58
2022/06/18 06:18:05;;;;;;;14.98;8.60;;;22.30;99.90;;;;;;4977918;28;20027;-57
2022/06/18 06:20:34;;;;;;;10.15;8.18;;;22.40;99.90;;;;;;4978020;28;20031;-57
2022/06/18 06:22:59;;;;;;;14.23;8.77;;;22.40;99.90;;;;;;4976418;28;20026;-58
2022/06/18 06:25:25;;;;;;;11.82;8.30;;;22.40;99.90;;;;;;4976791;28;20027;-58
2022/06/18 06:27:51;;;;;;;13.00;8.00;;;22.50;99.90;;;;;;4978228;28;20063;-57
2022/06/18 06:30:17;;;;;;;15.18;8.82;;;22.60;99.90;;;;;;4977824;28;20030;-58
2022/06/18 06:32:44;;;;;;;13.38;7.70;;;22.60;99.90;;;;;;4977438;28;20038;-58
2022/06/18 06:35:11;;;;;;;9.23;7.10;;;22.70;99.90;;;;;;4977766;28;20030;-59
2022/06/18 06:37:36;;;;;;;15.38;8.27;;;22.70;99.90;;;;;;4977833;28;20029;-58
2022/06/18 06:40:03;;;;;;;8.27;7.22;;;22.80;99.90;;;;;;4977679;28;20054;-58
2022/06/18 06:42:28;;;;;;;10.93;6.65;;;22.80;99.90;;;;;;4977736;28;20023;-57
2022/06/18 06:44:54;;;;;;;10.23;6.95;;;22.90;99.90;;;;;;4977268;28;20455;-59
2022/06/18 06:47:20;;;;;;;12.20;6.68;;;23.00;99.90;;;;;;4977364;28;20027;-58
2022/06/18 06:49:46;;;;;;;12.07;7.25;;;23.10;99.90;;;;;;4976490;28;20023;-59
2022/06/18 06:52:12;;;;;;;12.10;7.70;;;23.10;99.90;;;;;;4977012;28;20077;-58
2022/06/18 06:54:38;;;;;;;11.40;6.45;;;23.20;99.90;;;;;;4977803;28;20035;-59
2022/06/18 06:57:22;;;;;;;14.15;9.20;;;23.30;99.90;;;;;;4976757;28;20041;-58
2022/06/18 06:59:48;;;;;;;12.60;8.77;;;23.40;99.90;;;;;;4977280;28;20121;-59
2022/06/18 07:02:19;;;;;;;11.80;8.23;;;23.40;99.90;;;;;;4977277;28;20078;-59
2022/06/18 07:04:45;;;;;;;13.70;8.52;;;23.40;99.90;;;;;;4977352;28;20065;-59
2022/06/18 07:07:15;;;;;;;12.85;8.80;;;23.50;99.90;;;;;;4978203;28;20034;-58
2022/06/18 07:09:41;;;;;;;21.03;8.70;;;23.60;99.90;;;;;;4977671;28;20102;-58
2022/06/18 07:12:08;;;;;;;13.77;8.75;;;23.70;99.90;;;;;;4975094;28;20329;-59
2022/06/18 07:14:35;;;;;;;17.75;10.55;;;23.90;99.90;;;;;;4976293;28;20039;-58
2022/06/18 07:17:01;;;;;;;12.40;8.82;;;23.90;99.90;;;;;;4976717;28;20018;-57
2022/06/18 07:19:27;;;;;;;17.92;9.10;;;23.90;99.90;;;;;;4976137;28;20030;-56
2022/06/18 07:21:53;;;;;;;15.55;8.60;;;23.90;99.90;;;;;;4976176;28;20026;-56
2022/06/18 07:24:20;;;;;;;12.18;8.05;;;23.80;99.90;;;;;;4975450;28;20074;-55
2022/06/18 07:26:46;;;;;;;9.65;7.72;;;23.90;99.90;;;;;;4976106;28;20122;-56
2022/06/18 07:29:13;;;;;;;14.98;9.65;;;24.10;99.90;;;;;;4975992;28;20119;-57
2022/06/18 07:31:39;;;;;;;13.60;9.10;;;24.10;99.90;;;;;;4972777;28;20031;-58
2022/06/18 07:34:06;;;;;;;12.65;8.07;;;24.20;99.90;;;;;;4963085;28;20031;-57
2022/06/18 07:36:32;;;;;;;11.23;7.80;;;24.20;99.90;;;;;;4976036;28;20031;-56
2022/06/18 07:39:00;;;;;;;15.40;8.38;;;24.30;99.90;;;;;;4975650;28;20078;-57
2022/06/18 07:41:35;;;;;;;23.42;9.70;;;24.40;99.90;;;;;;4975561;28;20106;-58
2022/06/18 07:44:02;;;;;;;14.77;9.93;;;24.50;99.90;;;;;;4975563;28;20058;-58
2022/06/18 07:46:28;;;;;;;12.18;8.98;;;24.60;99.90;;;;;;4975752;28;20395;-58
2022/06/18 07:48:54;;;;;;;14.63;9.35;;;24.60;99.90;;;;;;4969588;28;20039;-58
2022/06/18 07:51:20;;;;;;;12.52;8.95;;;24.70;99.90;;;;;;4965390;28;20023;-58
2022/06/18 07:53:45;;;;;;;17.73;9.45;;;24.70;99.90;;;;;;4961710;28;20362;-57
2022/06/18 07:56:14;;;;;;;15.02;10.35;;;24.70;99.90;;;;;;4962586;28;20027;-57
2022/06/18 07:58:40;;;;;;;21.00;9.73;;;24.80;99.90;;;;;;4963981;28;20035;-58
2022/06/18 08:01:06;;;;;;;14.60;9.55;;;24.80;99.90;;;;;;4966151;28;20093;-57
2022/06/18 08:03:31;;;;;;;14.85;9.63;;;24.80;99.90;;;;;;4962826;28;20024;-57
2022/06/18 08:05:57;;;;;;;17.15;10.15;;;24.70;99.90;;;;;;4964374;28;20552;-58
2022/06/18 08:08:24;;;;;;;16.05;10.90;;;24.60;99.90;;;;;;4963854;28;20015;-58
2022/06/18 08:10:51;;;;;;;15.45;9.48;;;24.50;99.90;;;;;;4964787;28;20508;-58
2022/06/18 08:13:17;;;;;;;22.38;9.82;;;24.40;99.90;;;;;;4965098;28;20024;-54
2022/06/18 08:15:43;;;;;;;16.85;10.35;;;24.60;99.90;;;;;;4961650;28;20111;-57
2022/06/18 08:18:09;;;;;;;14.43;10.68;;;24.70;99.90;;;;;;4956088;29;20027;-57
2022/06/18 08:20:35;;;;;;;12.57;9.45;;;24.80;99.90;;;;;;4959247;28;20031;-57
2022/06/18 08:23:03;;;;;;;20.48;9.57;;;24.80;99.90;;;;;;4970121;28;20034;-57
2022/06/18 08:25:30;;;;;;;16.58;11.18;;;24.80;99.90;;;;;;4974121;28;20019;-58
2022/06/18 08:28:00;;;;;;;14.68;10.68;;;24.90;99.90;;;;;;4978079;28;20054;-57
2022/06/18 08:30:26;;;;;;;17.63;10.57;;;25.00;99.90;;;;;;4976561;28;20089;-57
2022/06/18 08:32:52;;;;;;;20.30;9.52;;;25.00;99.90;;;;;;4969507;28;20039;-58
2022/06/18 08:35:17;;;;;;;17.40;9.57;;;25.00;99.90;;;;;;4966988;28;20041;-58
2022/06/18 08:37:44;;;;;;;18.10;10.38;;;25.10;99.90;;;;;;4968109;28;20054;-56
2022/06/18 08:40:34;;;;;;;21.17;11.18;;;25.10;99.90;;;;;;4967103;28;20034;-54
2022/06/18 08:43:19;;;;;;;13.30;8.45;;;25.20;99.90;;;;;;4966538;28;20024;-58
2022/06/18 08:45:50;;;;;;;14.40;9.43;;;25.20;99.90;;;;;;4990161;28;20030;-57
2022/06/18 08:48:43;;;;;;;13.68;7.78;;;25.30;99.90;;;;;;4966683;28;20449;-57
2022/06/18 08:51:31;;;;;;;11.77;8.88;;;25.30;99.90;;;;;;4970402;28;20114;-57
2022/06/18 08:54:25;;;;;;;13.23;8.73;;;25.40;99.90;;;;;;4978852;28;20023;-57
2022/06/18 08:56:57;;;;;;;10.88;7.82;;;25.40;99.90;;;;;;4976468;28;20038;-56
2022/06/18 08:59:34;;;;;;;16.75;9.05;;;25.50;99.90;;;;;;4974306;28;20049;-58
2022/06/18 09:02:01;;;;;;;13.98;7.55;;;25.50;99.90;;;;;;4967539;28;20405;-54
2022/06/18 09:04:47;;;;;;;13.10;7.85;;;25.50;99.90;;;;;;4967386;28;20073;-58
2022/06/18 09:07:33;;;;;;;14.07;7.13;;;25.60;99.90;;;;;;4998972;28;20026;-58
2022/06/18 09:10:20;;;;;;;12.25;8.23;;;25.60;99.90;;;;;;4967739;28;20062;-56
2022/06/18 09:13:01;;;;;;;12.10;7.50;;;25.80;99.90;;;;;;4967403;28;20099;-58
2022/06/18 09:15:29;;;;;;;;;;;26.00;99.90;;;;;;4966486;28;20074;-57
2022/06/18 09:18:02;;;;;;;13.70;7.90;;;25.90;99.90;;;;;;4970139;28;19954;-59
2022/06/18 09:20:34;;;;;;;17.15;8.02;;;25.90;99.90;;;;;;4967238;28;20023;-55
2022/06/18 09:23:11;;;;;;;14.13;7.82;;;25.90;99.90;;;;;;4966850;28;20034;-57
2022/06/18 09:25:41;;;;;;;17.38;7.47;;;25.90;99.90;;;;;;4966448;28;20038;-56
2022/06/18 09:28:11;;;;;;;15.77;7.28;;;26.00;99.90;;;;;;4966515;28;20182;-57
2022/06/18 09:31:03;;;;;;;13.48;7.40;;;26.10;99.90;;;;;;4967724;28;20031;-57
2022/06/18 09:33:41;;;;;;;14.32;7.60;;;26.10;99.90;;;;;;4965452;28;20031;-57
2022/06/18 09:36:19;;;;;;;14.85;7.30;;;26.10;99.90;;;;;;4967272;28;20030;-57
2022/06/18 09:39:02;;;;;;;14.43;6.68;;;26.20;99.90;;;;;;4966433;28;20461;-56
2022/06/18 09:41:46;;;;;;;10.98;6.72;;;26.20;99.90;;;;;;4971903;28;20031;-58
2022/06/18 09:44:30;;;;;;;16.60;6.22;;;26.30;99.90;;;;;;4968390;28;20077;-57
2022/06/18 09:47:16;;;;;;;16.38;6.40;;;26.40;99.90;;;;;;4968389;28;20388;-55
2022/06/18 09:49:45;;;;;;;15.20;6.35;;;26.50;99.90;;;;;;4967192;28;20365;-57
2022/06/18 09:52:35;;;;;;;11.45;5.75;;;26.60;99.90;;;;;;4966547;28;20113;-56
2022/06/18 09:55:10;;;;;;;11.70;6.60;;;26.80;99.90;;;;;;4965374;28;20082;-58
2022/06/18 09:57:41;;;;;;;14.50;6.10;;;26.90;99.90;;;;;;4964759;28;20045;-57
2022/06/18 10:00:09;;;;;;;17.92;7.03;;;26.80;99.90;;;;;;4965557;28;20439;-59
2022/06/18 10:02:42;;;;;;;13.30;5.25;;;26.70;99.90;;;;;;4966851;28;20026;-59
2022/06/18 10:08:08;;;;;;;12.57;6.00;;;26.70;99.90;;;;;;4966731;28;20543;-58
2022/06/18 10:10:36;;;;;;;15.38;7.68;;;26.60;99.90;;;;;;4964314;28;20035;-57
2022/06/18 10:13:06;;;;;;;18.05;7.57;;;26.50;99.90;;;;;;4967985;28;20037;-57
2022/06/18 10:15:31;;;;;;;15.88;7.25;;;26.50;99.90;;;;;;4969638;28;20026;-55
2022/06/18 10:17:57;;;;;;;19.85;8.05;;;26.50;99.90;;;;;;4968454;28;20027;-56
2022/06/18 10:20:54;;;;;;;12.45;7.07;;;26.40;99.90;;;;;;4969079;28;20031;-58
2022/06/18 10:23:47;;;;;;;14.60;7.70;;;26.20;99.90;;;;;;4967086;28;20023;-57
2022/06/18 10:26:36;;;;;;;16.45;6.65;;;26.30;99.90;;;;;;4974534;28;20035;-57
2022/06/18 10:29:11;;;;;;;13.07;6.78;;;26.30;99.90;;;;;;4978720;28;20019;-57
2022/06/18 10:32:02;;;;;;;18.50;6.50;;;26.50;99.90;;;;;;4978877;28;20502;-57
2022/06/18 10:34:49;;;;;;;10.35;5.60;;;26.50;99.90;;;;;;4975801;28;20039;-57
2022/06/18 10:37:53;;;;;;;9.80;5.75;;;26.50;99.90;;;;;;4971638;28;20050;-56
2022/06/18 10:40:46;;;;;;;12.82;5.88;;;26.60;99.90;;;;;;4968329;28;20110;-58
2022/06/18 10:43:49;;;;;;;16.63;6.13;;;26.50;99.90;;;;;;4977153;28;20022;-58
2022/06/18 10:46:19;;;;;;;9.48;4.70;;;26.50;99.90;;;;;;4976886;28;20050;-58
2022/06/18 10:48:52;;;;;;;10.70;4.80;;;26.60;99.90;;;;;;4977978;28;20042;-57
2022/06/18 10:51:21;;;;;;;10.43;5.18;;;26.70;99.90;;;;;;4977828;28;20024;-58
2022/06/18 10:53:51;;;;;;;11.30;5.13;;;27.00;99.90;;;;;;4978557;28;20030;-58
2022/06/18 10:56:23;;;;;;;11.77;5.35;;;27.00;99.90;;;;;;4979253;28;20027;-58
2022/06/18 10:58:52;;;;;;;15.32;5.88;;;27.00;99.90;;;;;;4979567;28;20042;-58
2022/06/18 11:01:25;;;;;;;7.57;4.78;;;27.00;99.90;;;;;;4978915;28;20041;-58
2022/06/18 11:03:56;;;;;;;12.95;5.53;;;26.90;99.90;;;;;;4978188;28;20039;-57
2022/06/18 11:06:22;;;;;;;9.77;5.05;;;27.00;99.90;;;;;;4977777;28;20038;-58
2022/06/18 11:08:57;;;;;;;11.00;4.93;;;27.00;99.90;;;;;;4978313;28;20055;-57
2022/06/18 11:11:32;;;;;;;8.82;5.25;;;27.00;99.90;;;;;;4977871;28;20026;-57
2022/06/18 11:14:16;;;;;;;12.90;4.78;;;26.90;99.90;;;;;;4977902;28;20031;-58
2022/06/18 11:16:44;;;;;;;10.63;5.15;;;26.90;99.90;;;;;;4977185;28;20026;-56
2022/06/18 11:19:27;;;;;;;20.33;5.70;;;27.00;99.90;;;;;;4975294;28;20039;-53
2022/06/18 11:21:53;;;;;;;11.38;5.05;;;27.10;99.90;;;;;;4976573;28;20023;-57
2022/06/18 11:24:32;;;;;;;15.70;6.63;;;27.20;99.90;;;;;;4975569;28;20523;-56
2022/06/18 11:27:03;;;;;;;16.60;6.03;;;27.10;99.90;;;;;;4977062;28;20023;-59
2022/06/18 11:29:33;;;;;;;11.27;6.07;;;27.20;99.90;;;;;;4976666;28;20448;-60
2022/06/18 11:32:05;;;;;;;15.07;4.93;;;27.30;99.90;;;;;;4977444;28;20034;-60
2022/06/18 11:34:37;;;;;;;14.82;5.95;;;27.30;99.90;;;;;;4977758;28;20118;-59
2022/06/18 11:37:21;;;;;;;12.90;6.03;;;27.30;99.90;;;;;;4976112;28;20504;-58
2022/06/18 11:39:57;;;;;;;15.65;5.55;;;27.30;99.90;;;;;;4971654;28;20035;-59
2022/06/18 11:42:40;;;;;;;10.60;5.70;;;27.30;99.90;;;;;;4958109;28;20035;-59
2022/06/18 11:45:06;;;;;;;14.70;5.90;;;27.30;99.90;;;;;;4958529;28;20381;-58
2022/06/18 11:47:49;;;;;;;14.70;4.82;;;27.30;99.90;;;;;;4967049;28;20089;-60
2022/06/18 11:50:19;;;;;;;14.30;5.93;;;27.30;99.90;;;;;;4975970;28;20488;-58
2022/06/18 11:53:05;;;;;;;11.75;5.28;;;27.20;99.90;;;;;;4977879;28;20110;-58
2022/06/18 11:55:43;;;;;;;15.85;5.93;;;27.10;99.90;;;;;;4976381;28;20022;-59
2022/06/18 11:58:24;;;;;;;8.60;4.95;;;27.10;99.90;;;;;;4977274;28;20388;-59
2022/06/18 12:01:19;;;;;;;14.73;4.70;;;27.00;99.90;;;;;;4976979;28;20081;-59
2022/06/18 12:03:55;;;;;;;9.80;5.15;;;27.00;99.90;;;;;;4977390;28;20034;-59
2022/06/18 12:06:56;;;;;;;11.32;5.20;;;26.90;99.90;;;;;;4977783;28;20023;-58
2022/06/18 12:09:23;;;;;;;10.07;5.10;;;27.00;99.90;;;;;;4973231;28;20039;-59
2022/06/18 12:12:10;;;;;;;9.70;4.65;;;27.00;99.90;;;;;;4977573;28;20038;-59
2022/06/18 12:14:40;;;;;;;8.18;4.30;;;27.00;99.90;;;;;;4977453;28;20054;-59
2022/06/18 12:17:27;;;;;;;10.65;4.70;;;27.00;99.90;;;;;;4977778;28;20054;-59
2022/06/18 12:20:27;;;;;;;10.45;5.68;;;27.10;99.90;;;;;;4976901;28;20102;-59
2022/06/18 12:23:03;;;;;;;12.73;6.00;;;27.20;99.90;;;;;;4977533;28;20060;-59
2022/06/18 12:25:31;;;;;;;9.57;5.15;;;27.20;99.90;;;;;;4977065;28;20047;-59
2022/06/18 12:28:32;;;;;;;12.55;5.22;;;27.20;99.90;;;;;;4977457;28;20110;-59
2022/06/18 12:31:14;;;;;;;16.45;5.07;;;27.20;99.90;;;;;;4977118;28;20110;-58
2022/06/18 12:34:06;;;;;;;13.60;5.47;;;27.20;99.90;;;;;;4971914;28;20035;-58
2022/06/18 12:36:35;;;;;;;11.13;4.97;;;27.20;99.90;;;;;;4977206;28;20050;-58
2022/06/18 12:39:23;;;;;;;8.10;4.75;;;27.30;99.90;;;;;;4976990;28;20053;-59
2022/06/18 12:41:54;;;;;;;10.60;4.30;;;27.40;99.90;;;;;;4974412;28;20035;-59
2022/06/18 12:44:35;;;;;;;12.48;4.60;;;27.30;99.90;;;;;;4970071;28;20045;-59
2022/06/18 12:47:23;;;;;;;10.82;4.95;;;27.40;99.90;;;;;;4975509;28;20031;-58
2022/06/18 12:50:00;;;;;;;12.57;5.47;;;27.50;99.90;;;;;;4976465;28;20019;-58
2022/06/18 12:52:52;;;;;;;8.60;5.03;;;27.70;99.90;;;;;;4977313;28;20062;-58
2022/06/18 12:55:20;;;;;;;12.90;4.88;;;27.60;99.90;;;;;;4976079;28;20031;-58
2022/06/18 12:58:02;;;;;;;16.00;6.50;;;27.60;99.90;;;;;;4977343;28;20027;-57
2022/06/18 13:00:39;;;;;;;9.40;4.57;;;27.50;99.90;;;;;;4975292;28;20061;-59
2022/06/18 13:03:26;;;;;;;12.20;5.60;;;27.50;99.90;;;;;;4977464;28;20047;-59
2022/06/18 13:06:01;;;;;;;11.45;5.70;;;27.50;99.90;;;;;;4974023;28;20062;-57
2022/06/18 13:08:50;;;;;;;10.48;5.15;;;27.50;99.90;;;;;;4977475;28;20023;-58
2022/06/18 13:11:33;;;;;;;10.30;5.30;;;27.40;99.90;;;;;;4975311;28;20038;-59
2022/06/18 13:14:33;;;;;;;10.15;5.35;;;27.60;99.90;;;;;;4966289;28;20026;-60
2022/06/18 13:17:06;;;;;;;12.98;4.38;;;27.60;99.90;;;;;;4958607;28;20038;-60